Mendoza, Argentina
Current Conditions -  °F | °C
As of 5:00 PM on Friday 21 Nov 2014 (Local Time) from SAME Reporting Station
Scattered Clouds Scattered Clouds  
Wind Chill: 73°   Ceiling: Unl
Heat Index: 73°   Visibility: 6mi
Dew Point: 43°   Wind: 2mph
Humidity: 33%   Direction: 180°S
Pressure: 29.94"   Gusts: NA
Location:  32.89°S, 68.83°W
Report Text: SAME 212000Z 18002KT 9999 FEW040 SCT04523/06 Q1014
Loading
Personal Weather Stations






























Interactive Weather Map New forecast layout! Learn more

10-Day Weather Forecast

Advertisements
Track Severe Weather on mobile